Terminal Aerodrome Forecast
Issued by NWS

Home | Current Version | Previous Version | Text Only | Print | Product List | Glossary On
Versions: 1 2 3 4 5 6 7 8 9 10 11 12 13 14 15 16 17 18 19 20 21 22 23 24 25 26 27 28
000
FTUS45 KBOI 040853 AAA
TAFTWF
TAF AMD
KTWF 040853Z 0409/0506 20011G21KT P6SM FEW150
     FM041100 17011KT P6SM BKN150
     FM042100 16010G20KT P6SM VCTS BKN100CB
     FM050000 14010KT P6SM -SHRA OVC100=

USA.gov is the U.S. government's official web portal to all federal, state and local government web resources and services.